createdAt,value
2019-02-19T00:00:41.045Z,8.20
2019-02-19T00:03:09.555Z,7.97
2019-02-19T00:05:38.040Z,8.10
2019-02-19T00:08:06.516Z,8.73
2019-02-19T00:10:34.907Z,7.93
2019-02-19T00:13:03.423Z,8.57
2019-02-19T00:15:31.828Z,8.07
2019-02-19T00:18:00.561Z,8.43
2019-02-19T00:20:28.948Z,8.27
2019-02-19T00:22:57.420Z,8.73
2019-02-19T00:25:26.172Z,9.10
2019-02-19T00:27:55.077Z,8.00
2019-02-19T00:30:23.608Z,8.60
2019-02-19T00:32:52.012Z,8.47
2019-02-19T00:35:20.416Z,8.47
2019-02-19T00:37:49.044Z,8.63
2019-02-19T00:40:17.452Z,8.37
2019-02-19T00:42:45.909Z,8.50
2019-02-19T00:45:16.790Z,8.13
2019-02-19T00:47:44.728Z,8.37
2019-02-19T00:50:13.196Z,7.93
2019-02-19T00:52:41.825Z,7.77
2019-02-19T00:55:10.697Z,8.23
2019-02-19T00:57:39.353Z,8.33
2019-02-19T01:00:08.056Z,8.40
2019-02-19T01:02:36.508Z,7.63
2019-02-19T01:05:05.492Z,8.47
2019-02-19T01:07:33.981Z,8.17
2019-02-19T01:10:02.441Z,8.23
2019-02-19T01:12:30.885Z,8.50
2019-02-19T01:14:59.341Z,8.73
2019-02-19T01:17:27.732Z,8.17
2019-02-19T01:19:56.265Z,8.03
2019-02-19T01:22:24.733Z,8.57
2019-02-19T01:24:53.179Z,9.37
2019-02-19T01:27:21.641Z,8.37
2019-02-19T01:29:50.093Z,8.60
2019-02-19T01:32:18.773Z,8.30
2019-02-19T01:34:47.166Z,8.20
2019-02-19T01:37:16.101Z,9.03
2019-02-19T01:39:44.605Z,8.93
2019-02-19T01:42:13.269Z,8.27
2019-02-19T01:44:41.722Z,8.90
2019-02-19T01:47:10.137Z,9.30
2019-02-19T01:49:38.510Z,9.77
2019-02-19T01:52:07.075Z,10.27
2019-02-19T01:54:35.554Z,10.67
2019-02-19T01:57:04.030Z,10.83
2019-02-19T01:59:32.707Z,11.37
2019-02-19T02:02:01.198Z,11.63
2019-02-19T02:04:29.674Z,12.13
2019-02-19T02:06:58.074Z,13.00
2019-02-19T02:09:26.536Z,13.53
2019-02-19T02:11:54.997Z,13.23
2019-02-19T02:14:23.405Z,14.97
2019-02-19T02:16:52.146Z,14.60
2019-02-19T02:19:20.518Z,13.67
2019-02-19T02:21:49.019Z,14.33
2019-02-19T02:24:17.702Z,15.47
2019-02-19T02:26:46.064Z,15.67
2019-02-19T02:29:14.462Z,17.00
2019-02-19T02:31:42.859Z,16.97
2019-02-19T02:34:11.323Z,16.47
2019-02-19T02:36:39.754Z,15.37
2019-02-19T02:39:08.204Z,14.77
2019-02-19T02:41:36.659Z,15.70
2019-02-19T02:44:05.111Z,16.60
2019-02-19T02:46:33.579Z,16.83
2019-02-19T02:49:01.982Z,16.13
2019-02-19T02:51:30.528Z,17.53
2019-02-19T02:53:58.928Z,17.43
2019-02-19T02:56:27.327Z,16.83
2019-02-19T02:58:55.711Z,17.67
2019-02-19T03:01:24.103Z,17.70
2019-02-19T03:03:52.507Z,19.23
2019-02-19T03:06:41.089Z,19.27
2019-02-19T03:09:09.551Z,18.93
2019-02-19T03:11:37.975Z,19.13
2019-02-19T03:14:06.471Z,20.23
2019-02-19T03:16:34.955Z,20.57
2019-02-19T03:19:03.407Z,21.00
2019-02-19T03:21:31.867Z,20.60
2019-02-19T03:24:00.265Z,20.43
2019-02-19T03:26:28.987Z,20.87
2019-02-19T03:28:57.914Z,21.60
2019-02-19T03:31:26.341Z,21.70
2019-02-19T03:33:54.713Z,22.77
2019-02-19T03:36:23.096Z,22.07
2019-02-19T03:38:51.484Z,22.83
2019-02-19T03:41:19.860Z,20.50
2019-02-19T03:43:48.312Z,19.83
2019-02-19T03:46:16.963Z,19.37
2019-02-19T03:48:45.373Z,20.37
2019-02-19T03:51:13.844Z,19.83
2019-02-19T03:53:42.555Z,20.13
2019-02-19T03:56:11.015Z,20.13
2019-02-19T03:58:39.495Z,19.07
2019-02-19T04:01:07.917Z,19.47
2019-02-19T04:03:36.401Z,20.30
2019-02-19T04:06:04.794Z,19.43
2019-02-19T04:08:33.335Z,19.80
2019-02-19T04:11:01.731Z,19.53
2019-02-19T04:13:30.216Z,18.90
2019-02-19T04:15:58.675Z,19.07
2019-02-19T04:18:27.181Z,18.37
2019-02-19T04:20:55.560Z,19.30
2019-02-19T04:23:23.958Z,19.37
2019-02-19T04:25:52.500Z,18.47
2019-02-19T04:28:20.984Z,19.77
2019-02-19T04:30:49.380Z,19.97
2019-02-19T04:33:17.756Z,19.70
2019-02-19T04:35:46.303Z,19.47
2019-02-19T04:38:14.700Z,18.73
2019-02-19T04:40:43.180Z,19.83
2019-02-19T04:43:11.605Z,20.80
2019-02-19T04:45:39.988Z,22.20
2019-02-19T04:48:08.369Z,22.57
2019-02-19T04:50:36.788Z,23.20
2019-02-19T04:53:05.303Z,23.47
2019-02-19T04:55:33.704Z,24.33
2019-02-19T04:58:02.160Z,23.17
2019-02-19T05:00:30.574Z,23.07
2019-02-19T05:02:58.972Z,23.20
2019-02-19T05:05:27.357Z,24.80
2019-02-19T05:07:55.829Z,24.90
2019-02-19T05:10:24.228Z,23.27
2019-02-19T05:12:52.634Z,23.20
2019-02-19T05:15:21.140Z,23.13
2019-02-19T05:17:49.860Z,23.33
2019-02-19T05:20:18.252Z,21.77
2019-02-19T05:22:46.636Z,23.30
2019-02-19T05:25:15.049Z,21.53
2019-02-19T05:27:43.497Z,22.60
2019-02-19T05:30:12.037Z,22.87
2019-02-19T05:32:40.457Z,22.93
2019-02-19T05:35:08.921Z,21.63
2019-02-19T05:37:37.533Z,21.97
2019-02-19T05:40:06.079Z,22.83
2019-02-19T05:42:34.490Z,21.90
2019-02-19T05:45:03.043Z,22.70
2019-02-19T05:47:31.477Z,22.67
2019-02-19T05:49:59.933Z,22.33
2019-02-19T05:52:28.321Z,22.07
2019-02-19T05:54:57.165Z,23.70
2019-02-19T05:57:25.558Z,20.47
2019-02-19T05:59:53.959Z,21.57
2019-02-19T06:02:22.446Z,21.53
2019-02-19T06:04:50.838Z,22.20
2019-02-19T06:07:19.229Z,21.90
2019-02-19T06:09:47.614Z,21.77
2019-02-19T06:12:16.018Z,21.97
2019-02-19T06:14:44.801Z,21.43
2019-02-19T06:17:13.203Z,21.27
2019-02-19T06:19:41.782Z,21.10
2019-02-19T06:22:10.170Z,22.00
2019-02-19T06:24:39.314Z,20.60
2019-02-19T06:27:07.798Z,22.30
2019-02-19T06:29:36.202Z,20.63
2019-02-19T06:32:04.681Z,21.73
2019-02-19T06:34:33.058Z,20.50
2019-02-19T06:37:01.530Z,21.00
2019-02-19T06:39:29.914Z,21.23
2019-02-19T06:41:58.418Z,21.17
2019-02-19T06:44:26.794Z,20.47
2019-02-19T06:46:55.530Z,21.50
2019-02-19T06:49:23.994Z,21.67
2019-02-19T06:51:52.551Z,20.33
2019-02-19T06:54:20.959Z,21.87
2019-02-19T06:56:50.259Z,21.53
2019-02-19T06:59:18.678Z,22.40
2019-02-19T07:02:12.462Z,21.53
2019-02-19T07:04:46.962Z,21.10
2019-02-19T07:07:15.363Z,22.07
2019-02-19T07:09:44.190Z,20.93
2019-02-19T07:12:12.638Z,20.33
2019-02-19T07:14:41.466Z,21.93
2019-02-19T07:17:15.481Z,21.67
2019-02-19T07:19:40.587Z,22.10
2019-02-19T07:22:08.959Z,22.43
2019-02-19T07:24:37.330Z,22.33
2019-02-19T07:27:05.831Z,22.40
2019-02-19T07:29:34.460Z,21.20
2019-02-19T07:32:03.427Z,21.60
2019-02-19T07:34:32.207Z,21.17
2019-02-19T07:37:01.519Z,21.17
2019-02-19T07:39:29.991Z,21.73
2019-02-19T07:41:58.398Z,21.00
2019-02-19T07:44:26.831Z,20.77
2019-02-19T07:46:55.321Z,20.33
2019-02-19T07:49:23.855Z,19.90
2019-02-19T07:51:52.375Z,19.47
2019-02-19T07:54:20.875Z,19.83
2019-02-19T07:56:50.283Z,18.53
2019-02-19T07:59:18.900Z,17.93
2019-02-19T08:01:47.415Z,16.90
2019-02-19T08:04:16.056Z,16.70
2019-02-19T08:06:45.916Z,16.97
2019-02-19T08:09:14.529Z,17.33
2019-02-19T08:11:42.948Z,17.07
2019-02-19T08:14:11.391Z,17.43
2019-02-19T08:16:39.853Z,15.30
2019-02-19T08:19:08.395Z,15.63
2019-02-19T08:21:37.040Z,15.33
2019-02-19T08:24:05.608Z,14.33
2019-02-19T08:26:34.038Z,15.33
2019-02-19T08:29:13.079Z,14.67
2019-02-19T08:31:32.804Z,14.53
2019-02-19T08:34:01.388Z,14.03
2019-02-19T08:36:30.249Z,14.20
2019-02-19T08:38:58.677Z,14.60
2019-02-19T08:41:27.164Z,15.07
2019-02-19T08:43:55.708Z,13.23
2019-02-19T08:46:24.248Z,13.50
2019-02-19T08:48:52.796Z,12.80
2019-02-19T08:51:21.248Z,12.43
2019-02-19T08:53:49.702Z,12.17
2019-02-19T08:56:18.530Z,12.37
2019-02-19T08:58:47.044Z,11.93
2019-02-19T09:01:15.564Z,12.57
2019-02-19T09:03:44.089Z,11.67
2019-02-19T09:06:13.216Z,11.67
2019-02-19T09:08:41.622Z,11.70
2019-02-19T09:11:10.151Z,11.43
2019-02-19T09:13:38.637Z,11.53
2019-02-19T09:16:07.140Z,10.77
2019-02-19T09:18:35.646Z,11.13
2019-02-19T09:21:04.125Z,10.23
2019-02-19T09:23:32.561Z,10.37
2019-02-19T09:26:00.965Z,10.27
2019-02-19T09:28:29.391Z,10.70
2019-02-19T09:30:57.962Z,10.33
2019-02-19T09:33:26.493Z,9.10
2019-02-19T09:35:55.217Z,9.47
2019-02-19T09:38:23.637Z,9.80
2019-02-19T09:40:52.197Z,9.40
2019-02-19T09:43:20.661Z,9.43
2019-02-19T09:45:49.074Z,9.10
2019-02-19T09:48:17.701Z,8.43
2019-02-19T09:50:46.221Z,9.13
2019-02-19T09:53:14.761Z,9.27
2019-02-19T09:55:43.878Z,8.60
2019-02-19T09:58:12.649Z,8.40
2019-02-19T10:00:41.021Z,9.10
2019-02-19T10:03:09.666Z,8.30
2019-02-19T10:05:38.207Z,8.33
2019-02-19T10:08:06.720Z,7.90
2019-02-19T10:10:35.160Z,8.37
2019-02-19T10:13:03.665Z,8.47
2019-02-19T10:15:32.194Z,7.97
2019-02-19T10:18:09.716Z,8.03
2019-02-19T10:20:31.259Z,8.93
2019-02-19T10:22:59.754Z,8.87
2019-02-19T10:25:28.181Z,9.40
2019-02-19T10:27:57.250Z,8.87
2019-02-19T10:30:26.190Z,8.20
2019-02-19T10:32:55.602Z,8.40
2019-02-19T10:35:24.550Z,8.53
2019-02-19T10:37:53.510Z,7.83
2019-02-19T10:40:22.506Z,8.83
2019-02-19T10:42:51.517Z,8.70
2019-02-19T10:45:20.618Z,8.20
2019-02-19T10:47:50.346Z,8.67
2019-02-19T10:50:20.299Z,8.17
2019-02-19T10:52:51.694Z,8.00
2019-02-19T10:55:21.002Z,7.50
2019-02-19T10:57:49.978Z,8.57
2019-02-19T11:00:19.128Z,7.30
2019-02-19T11:02:48.198Z,8.80
2019-02-19T11:05:16.838Z,8.30
2019-02-19T11:07:45.262Z,8.90
2019-02-19T11:10:13.790Z,8.80
2019-02-19T11:12:42.270Z,9.30
2019-02-19T11:15:10.818Z,9.53
2019-02-19T11:17:39.251Z,9.60
2019-02-19T11:20:08.610Z,9.70
2019-02-19T11:22:37.074Z,10.20
2019-02-19T11:25:06.227Z,9.30
2019-02-19T11:27:35.199Z,9.50
2019-02-19T11:30:04.555Z,9.67
2019-02-19T11:32:33.407Z,9.67
2019-02-19T11:35:01.927Z,9.83
2019-02-19T11:37:30.335Z,10.63
2019-02-19T11:39:58.912Z,11.33
2019-02-19T11:42:27.443Z,10.67
2019-02-19T11:44:55.895Z,10.73
2019-02-19T11:47:26.605Z,11.33
2019-02-19T11:49:54.819Z,10.57
2019-02-19T11:52:23.880Z,11.23
2019-02-19T11:54:52.827Z,10.57
2019-02-19T11:57:21.742Z,10.77
2019-02-19T11:59:50.871Z,11.00
2019-02-19T12:02:20.499Z,10.65
2019-02-19T12:04:49.512Z,10.87
2019-02-19T12:07:18.876Z,11.20
2019-02-19T12:09:47.351Z,11.33
2019-02-19T12:12:15.803Z,11.10
2019-02-19T12:14:44.367Z,11.70
2019-02-19T12:17:12.747Z,11.20
2019-02-19T12:19:41.659Z,11.27
2019-02-19T12:22:10.061Z,10.93
2019-02-19T12:24:38.535Z,11.13
2019-02-19T12:27:08.844Z,10.57
2019-02-19T12:29:37.199Z,9.83
2019-02-19T12:32:05.687Z,11.07
2019-02-19T12:34:34.204Z,10.37
2019-02-19T12:37:02.624Z,10.63
2019-02-19T12:39:31.048Z,11.73
2019-02-19T12:41:59.488Z,11.00
2019-02-19T12:44:27.899Z,10.70
2019-02-19T12:46:56.276Z,9.67
2019-02-19T12:49:24.680Z,10.03
2019-02-19T12:51:53.236Z,9.43
2019-02-19T12:54:21.744Z,9.93
2019-02-19T12:56:50.192Z,10.10
2019-02-19T12:59:18.772Z,10.27
2019-02-19T13:01:47.164Z,9.77
2019-02-19T13:04:15.624Z,9.87
2019-02-19T13:06:44.648Z,9.07
2019-02-19T13:09:13.024Z,9.80
2019-02-19T13:11:41.428Z,9.10
2019-02-19T13:14:09.816Z,8.67
2019-02-19T13:16:38.229Z,9.13
2019-02-19T13:19:06.792Z,9.10
2019-02-19T13:21:35.272Z,9.60
2019-02-19T13:24:03.685Z,21.13
2019-02-19T13:26:32.118Z,10.37
2019-02-19T13:29:00.513Z,8.47
2019-02-19T13:31:29.276Z,8.27
2019-02-19T13:33:57.713Z,8.37
2019-02-19T13:36:26.173Z,8.80
2019-02-19T13:38:54.557Z,8.70
2019-02-19T13:41:22.977Z,8.77
2019-02-19T13:43:51.453Z,7.90
2019-02-19T13:46:20.448Z,7.53
2019-02-19T13:48:48.842Z,7.30
2019-02-19T13:51:17.574Z,8.57
2019-02-19T13:54:14.364Z,7.50
2019-02-19T13:56:42.861Z,6.90
2019-02-19T13:59:11.341Z,6.70
2019-02-19T14:01:39.845Z,5.93
2019-02-19T14:04:08.230Z,6.20
2019-02-19T14:06:36.642Z,6.57
2019-02-19T14:09:05.545Z,7.03
2019-02-19T14:11:34.029Z,6.50
2019-02-19T14:14:15.325Z,6.80
2019-02-19T14:16:53.201Z,7.10
2019-02-19T14:19:34.266Z,6.97
2019-02-19T14:22:10.359Z,7.17
2019-02-19T14:25:01.158Z,6.50
2019-02-19T14:27:48.750Z,7.43
2019-02-19T14:30:51.405Z,6.70
2019-02-19T14:33:49.375Z,5.70
2019-02-19T14:36:27.702Z,5.57
2019-02-19T14:39:12.477Z,6.97
2019-02-19T14:41:55.106Z,6.67
2019-02-19T14:44:42.746Z,6.57
2019-02-19T14:47:33.849Z,7.63
2019-02-19T14:50:24.246Z,6.30
2019-02-19T14:53:15.779Z,6.43
2019-02-19T14:56:05.422Z,6.43
2019-02-19T14:58:51.793Z,6.00
2019-02-19T15:01:40.130Z,5.47
2019-02-19T15:04:45.838Z,5.50
2019-02-19T15:07:32.595Z,6.33
2019-02-19T15:10:26.217Z,6.60
2019-02-19T15:13:16.910Z,6.57
2019-02-19T15:16:03.676Z,6.70
2019-02-19T15:18:54.698Z,6.00
2019-02-19T15:21:40.954Z,5.83
2019-02-19T15:24:37.530Z,5.20
2019-02-19T15:27:28.003Z,4.73
2019-02-19T15:30:07.479Z,4.40
2019-02-19T15:32:55.104Z,4.57
2019-02-19T15:35:41.608Z,4.03
2019-02-19T15:38:28.123Z,4.10
2019-02-19T15:41:31.087Z,3.70
2019-02-19T15:44:20.187Z,3.77
2019-02-19T15:47:07.751Z,3.60
2019-02-19T15:49:50.235Z,3.00
2019-02-19T15:52:55.889Z,2.93
2019-02-19T15:55:40.503Z,3.00
2019-02-19T15:58:18.881Z,3.07
2019-02-19T16:01:05.659Z,3.20
2019-02-19T16:03:49.489Z,3.57
2019-02-19T16:06:29.427Z,3.00
2019-02-19T16:09:19.907Z,2.90
2019-02-19T16:12:03.077Z,3.03
2019-02-19T16:14:47.848Z,3.17
2019-02-19T16:17:32.983Z,2.80
2019-02-19T16:20:10.855Z,2.70
2019-02-19T16:22:58.403Z,2.63
2019-02-19T16:25:51.995Z,2.10
2019-02-19T16:28:52.615Z,2.50
2019-02-19T16:31:42.004Z,2.20
2019-02-19T16:34:29.772Z,2.73
2019-02-19T16:37:17.307Z,2.67
2019-02-19T16:39:52.508Z,2.50
2019-02-19T16:42:46.783Z,2.70
2019-02-19T16:45:37.696Z,2.60
2019-02-19T16:48:37.368Z,2.83
2019-02-19T16:51:12.858Z,3.07
2019-02-19T16:54:09.620Z,2.50
2019-02-19T16:56:53.953Z,3.10
2019-02-19T16:59:40.332Z,2.57
2019-02-19T17:02:17.324Z,2.70
2019-02-19T17:04:55.380Z,3.10
2019-02-19T17:07:33.436Z,3.17
2019-02-19T17:10:12.408Z,2.90
2019-02-19T17:13:03.183Z,3.90
2019-02-19T17:15:49.336Z,3.13
2019-02-19T17:18:35.894Z,3.07
2019-02-19T17:21:32.932Z,3.20
2019-02-19T17:24:22.976Z,2.90
2019-02-19T17:27:02.900Z,2.90
2019-02-19T17:30:06.024Z,2.60
2019-02-19T17:33:08.725Z,2.60
2019-02-19T17:35:52.780Z,2.90
2019-02-19T17:38:50.329Z,3.23
2019-02-19T17:41:33.629Z,2.90
2019-02-19T17:44:39.665Z,4.03
2019-02-19T17:47:23.480Z,3.30
2019-02-19T17:50:11.137Z,3.00
2019-02-19T17:52:49.117Z,2.57
2019-02-19T17:55:55.261Z,2.67
2019-02-19T17:58:34.885Z,3.50
2019-02-19T18:01:21.445Z,3.30
2019-02-19T18:04:06.006Z,3.07
2019-02-19T18:06:53.625Z,3.47
2019-02-19T18:09:47.742Z,4.20
2019-02-19T18:12:22.721Z,5.00
2019-02-19T18:15:16.385Z,5.07
2019-02-19T18:17:56.518Z,4.70
2019-02-19T18:20:25.085Z,5.67
2019-02-19T18:22:53.466Z,4.50
2019-02-19T18:25:22.083Z,4.10
2019-02-19T18:27:50.586Z,4.10
2019-02-19T18:30:19.053Z,2.73
2019-02-19T18:32:47.601Z,3.00
2019-02-19T18:35:16.110Z,3.57
2019-02-19T18:37:44.582Z,3.67
2019-02-19T18:40:32.300Z,3.33
2019-02-19T18:43:00.702Z,2.70
2019-02-19T18:45:29.114Z,3.30
2019-02-19T18:47:57.589Z,4.40
2019-02-19T18:50:26.034Z,3.50
2019-02-19T18:52:54.426Z,3.30
2019-02-19T18:55:22.827Z,4.07
2019-02-19T18:57:51.315Z,3.40
2019-02-19T19:00:19.930Z,3.63
2019-02-19T19:02:48.406Z,2.97
2019-02-19T19:05:16.858Z,3.00
2019-02-19T19:07:45.315Z,2.93
2019-02-19T19:10:14.201Z,3.37
2019-02-19T19:12:43.094Z,3.33
2019-02-19T19:15:11.531Z,3.80
2019-02-19T19:17:40.015Z,4.83
2019-02-19T19:20:08.687Z,4.77
2019-02-19T19:22:37.372Z,4.50
2019-02-19T19:25:05.863Z,4.27
2019-02-19T19:27:34.539Z,4.53
2019-02-19T19:30:03.139Z,3.90
2019-02-19T19:32:31.587Z,3.23
2019-02-19T19:35:00.108Z,3.10
2019-02-19T19:37:28.727Z,3.10
2019-02-19T19:39:57.841Z,3.67
2019-02-19T19:42:26.232Z,3.43
2019-02-19T19:44:54.695Z,4.30
2019-02-19T19:47:23.091Z,4.10
2019-02-19T19:49:51.667Z,4.30
2019-02-19T19:52:20.079Z,5.80
2019-02-19T19:54:48.596Z,6.43
2019-02-19T19:57:17.057Z,4.47
2019-02-19T19:59:45.475Z,4.47
2019-02-19T20:02:14.063Z,4.10
2019-02-19T20:04:42.541Z,3.97
2019-02-19T20:07:11.049Z,3.50
2019-02-19T20:09:39.851Z,3.80
2019-02-19T20:12:08.308Z,3.97
2019-02-19T20:14:36.806Z,4.20
2019-02-19T20:17:05.332Z,4.40
2019-02-19T20:19:33.924Z,4.47
2019-02-19T20:22:02.430Z,4.53
2019-02-19T20:24:30.864Z,5.30
2019-02-19T20:26:59.320Z,5.33
2019-02-19T20:29:27.800Z,5.47
2019-02-19T20:31:56.312Z,5.30
2019-02-19T20:34:24.838Z,4.70
2019-02-19T20:36:53.297Z,4.20
2019-02-19T20:39:22.503Z,5.07
2019-02-19T20:41:50.956Z,4.43
2019-02-19T20:44:19.377Z,5.40
2019-02-19T20:46:47.837Z,4.73
2019-02-19T20:49:16.219Z,3.87
2019-02-19T20:51:44.712Z,4.20
2019-02-19T20:54:13.253Z,3.60
2019-02-19T20:56:41.754Z,4.13
2019-02-19T20:59:10.192Z,4.47
2019-02-19T21:01:38.948Z,4.73
2019-02-19T21:04:07.328Z,4.47
2019-02-19T21:06:35.716Z,4.77
2019-02-19T21:09:05.368Z,4.53
2019-02-19T21:11:33.771Z,5.07
2019-02-19T21:14:02.157Z,4.50
2019-02-19T21:16:30.640Z,3.73
2019-02-19T21:18:59.324Z,3.93
2019-02-19T21:21:27.720Z,4.20
2019-02-19T21:23:56.141Z,4.33
2019-02-19T21:26:25.013Z,5.10
2019-02-19T21:28:53.684Z,4.80
2019-02-19T21:31:22.896Z,4.90
2019-02-19T21:33:51.321Z,5.10
2019-02-19T21:36:38.960Z,4.53
2019-02-19T21:39:07.469Z,5.20
2019-02-19T21:41:35.860Z,4.40
2019-02-19T21:44:04.340Z,4.70
2019-02-19T21:46:33.329Z,4.87
2019-02-19T21:49:01.914Z,4.30
2019-02-19T21:51:30.673Z,4.93
2019-02-19T21:53:59.073Z,4.70
2019-02-19T21:56:27.485Z,4.70
2019-02-19T21:58:56.013Z,5.07
2019-02-19T22:01:24.409Z,4.83
2019-02-19T22:03:53.060Z,4.53
2019-02-19T22:06:21.513Z,4.37
2019-02-19T22:08:50.389Z,4.87
2019-02-19T22:11:18.845Z,4.97
2019-02-19T22:13:47.364Z,4.53
2019-02-19T22:16:15.782Z,4.93
2019-02-19T22:18:44.321Z,4.63
2019-02-19T22:21:32.237Z,4.20
2019-02-19T22:24:00.926Z,4.13
2019-02-19T22:26:29.321Z,4.20
2019-02-19T22:28:57.779Z,4.83
2019-02-19T22:31:26.253Z,4.47
2019-02-19T22:33:54.661Z,5.10
2019-02-19T22:36:23.724Z,3.60
2019-02-19T22:38:52.185Z,3.50
2019-02-19T22:41:20.657Z,4.20
2019-02-19T22:43:49.116Z,4.13
2019-02-19T22:46:17.585Z,3.57
2019-02-19T22:48:46.058Z,4.33
2019-02-19T22:51:14.794Z,3.70
2019-02-19T22:53:52.607Z,4.10
2019-02-19T22:56:24.798Z,4.00
2019-02-19T22:58:53.274Z,3.97
2019-02-19T23:01:33.634Z,4.37
2019-02-19T23:04:02.130Z,3.60
2019-02-19T23:06:30.850Z,4.07
2019-02-19T23:08:59.658Z,4.17
2019-02-19T23:11:28.126Z,4.63
2019-02-19T23:13:56.614Z,4.97
2019-02-19T23:16:25.006Z,4.27
2019-02-19T23:18:53.386Z,4.30
2019-02-19T23:21:21.854Z,4.03
2019-02-19T23:23:50.282Z,3.70
2019-02-19T23:26:18.728Z,4.17
2019-02-19T23:28:47.143Z,4.00
2019-02-19T23:31:15.538Z,4.13
2019-02-19T23:33:44.302Z,4.43
2019-02-19T23:36:23.498Z,4.27
2019-02-19T23:38:51.890Z,4.63
2019-02-19T23:41:20.286Z,5.37
2019-02-19T23:43:48.755Z,4.83
2019-02-19T23:46:17.162Z,4.83
2019-02-19T23:48:45.556Z,4.20
2019-02-19T23:51:14.523Z,4.27
2019-02-19T23:53:42.915Z,4.33
2019-02-19T23:56:11.311Z,5.27
2019-02-19T23:58:40.072Z,4.80
